Time;durP1;ratioP1;P1;durP2;ratioP2;P2;SDS_P1;SDS_P2;PMS_P1;PMS_P2;Temp;Humidity;BMP_temperature;BMP_pressure;BME280_temperature;BME280_humidity;BME280_pressure;Samples;Min_cycle;Max_cycle;Signal;HPM_P1;HPM_P2
2022/10/01 00:01:00;;;;;;;7.18;4.20;;;12.90;84.90;;;;;;5116895;28;20032;-71
2022/10/01 00:03:28;;;;;;;8.27;4.82;;;12.90;84.90;;;;;;5116759;28;20024;-72
2022/10/01 00:06:04;;;;;;;5.68;3.80;;;12.80;85.40;;;;;;5116741;28;20024;-72
2022/10/01 00:08:30;;;;;;;5.25;3.72;;;12.80;86.50;;;;;;5116746;28;20032;-71
2022/10/01 00:10:59;;;;;;;5.75;4.20;;;12.80;85.90;;;;;;5116685;28;20083;-71
2022/10/01 00:13:45;;;;;;;6.32;3.95;;;12.80;86.00;;;;;;5116634;28;20042;-72
2022/10/01 00:16:13;;;;;;;5.35;3.95;;;12.70;86.00;;;;;;5116629;28;20032;-71
2022/10/01 00:18:41;;;;;;;7.10;4.72;;;12.80;85.40;;;;;;5116536;28;20032;-72
2022/10/01 00:21:12;;;;;;;5.60;4.28;;;12.80;85.90;;;;;;5116508;28;20030;-72
2022/10/01 00:23:39;;;;;;;5.97;4.03;;;12.80;86.00;;;;;;5116480;28;20028;-71
2022/10/01 00:26:10;;;;;;;7.13;4.32;;;12.80;87.00;;;;;;5116388;28;20352;-72
2022/10/01 00:28:35;;;;;;;11.38;4.60;;;12.80;86.30;;;;;;5116274;28;20020;-71
2022/10/01 00:31:01;;;;;;;5.75;4.10;;;12.70;86.40;;;;;;5116286;28;20024;-72
2022/10/01 00:33:27;;;;;;;6.65;3.95;;;12.70;86.40;;;;;;5116273;28;20084;-72
2022/10/01 00:35:55;;;;;;;6.93;4.75;;;12.80;86.60;;;;;;5116240;28;20032;-72
2022/10/01 00:38:21;;;;;;;7.50;4.43;;;12.80;86.60;;;;;;5097992;28;20051;-71
2022/10/01 00:40:47;;;;;;;5.40;3.53;;;12.70;86.50;;;;;;5115778;28;20036;-72
2022/10/01 00:43:26;;;;;;;7.63;4.68;;;12.70;86.90;;;;;;5115983;28;20062;-71
2022/10/01 00:45:56;;;;;;;6.40;4.35;;;12.70;86.90;;;;;;5115944;28;20047;-71
2022/10/01 00:48:23;;;;;;;5.85;4.35;;;12.80;86.60;;;;;;5115959;28;20058;-73
2022/10/01 00:50:50;;;;;;;5.55;3.42;;;12.80;86.20;;;;;;5115917;28;20021;-74
2022/10/01 00:53:18;;;;;;;5.78;4.03;;;12.70;86.80;;;;;;5115847;28;20020;-74
2022/10/01 00:55:50;;;;;;;5.38;4.18;;;12.70;86.50;;;;;;5115975;28;20083;-74
2022/10/01 00:58:17;;;;;;;5.85;4.10;;;12.80;86.90;;;;;;5115853;28;20020;-74
2022/10/01 01:00:43;;;;;;;5.75;4.18;;;12.70;87.90;;;;;;5115595;28;20031;-74
2022/10/01 01:03:10;;;;;;;6.63;3.97;;;12.70;87.00;;;;;;5115662;28;20032;-74
2022/10/01 01:05:36;;;;;;;8.23;4.55;;;12.80;86.60;;;;;;5115655;28;20076;-73
2022/10/01 01:08:02;;;;;;;5.88;4.30;;;12.90;86.80;;;;;;5115603;28;20025;-72
2022/10/01 01:10:58;;;;;;;7.38;4.22;;;12.70;86.90;;;;;;5115551;28;20044;-73
2022/10/01 01:13:36;;;;;;;6.63;3.50;;;12.70;87.60;;;;;;5115558;28;20032;-73
2022/10/01 01:16:11;;;;;;;6.07;4.10;;;12.70;87.80;;;;;;5115488;28;20024;-72
2022/10/01 01:18:43;;;;;;;7.03;3.95;;;12.60;88.30;;;;;;5115439;28;20455;-73
2022/10/01 01:21:17;;;;;;;4.70;3.57;;;12.50;88.60;;;;;;5115542;28;20107;-72
2022/10/01 01:24:16;;;;;;;5.22;3.50;;;12.60;88.60;;;;;;5115271;28;20030;-72
2022/10/01 01:26:52;;;;;;;6.90;4.28;;;12.60;88.70;;;;;;5115346;28;20016;-71
2022/10/01 01:29:48;;;;;;;5.78;4.30;;;12.50;88.90;;;;;;5115231;28;20436;-72
2022/10/01 01:32:18;;;;;;;6.18;3.92;;;12.60;89.10;;;;;;5114629;28;20047;-72
2022/10/01 01:34:47;;;;;;;5.95;3.88;;;12.60;89.10;;;;;;5115049;28;20024;-72
2022/10/01 01:37:16;;;;;;;8.10;4.13;;;12.50;89.50;;;;;;5115011;28;20028;-72
2022/10/01 01:39:46;;;;;;;5.63;3.63;;;12.50;89.90;;;;;;5114963;28;20531;-72
2022/10/01 01:42:39;;;;;;;5.38;3.65;;;12.40;90.00;;;;;;5115011;28;20016;-71
2022/10/01 01:45:09;;;;;;;6.22;3.80;;;12.40;90.20;;;;;;5112583;28;20028;-71
2022/10/01 01:47:37;;;;;;;4.82;2.92;;;12.40;90.10;;;;;;5114677;28;20040;-71
2022/10/01 01:50:06;;;;;;;5.22;3.55;;;12.40;90.20;;;;;;5114387;28;20024;-71
2022/10/01 01:52:32;;;;;;;6.70;3.40;;;12.40;90.20;;;;;;5114171;28;20020;-71
2022/10/01 01:54:58;;;;;;;3.80;3.08;;;12.40;90.20;;;;;;5114716;28;20038;-71
2022/10/01 01:57:23;;;;;;;4.38;2.90;;;12.40;90.10;;;;;;5096666;28;20024;-71
2022/10/01 01:59:49;;;;;;;4.15;2.75;;;12.40;90.20;;;;;;5114582;28;20024;-72
2022/10/01 02:02:22;;;;;;;3.88;2.90;;;12.50;90.20;;;;;;5114560;28;20031;-71
2022/10/01 02:04:55;;;;;;;4.85;2.83;;;12.40;90.30;;;;;;5114467;28;20050;-71
2022/10/01 02:07:46;;;;;;;5.00;3.15;;;12.40;90.40;;;;;;5114485;28;20031;-71
2022/10/01 02:10:36;;;;;;;4.38;2.45;;;12.50;90.40;;;;;;5086724;28;20043;-71
2022/10/01 02:13:08;;;;;;;4.93;3.10;;;12.40;90.40;;;;;;5114394;28;20028;-72
2022/10/01 02:15:45;;;;;;;3.70;2.63;;;12.40;90.50;;;;;;5114346;28;20032;-72
2022/10/01 02:18:33;;;;;;;7.82;2.60;;;12.40;90.50;;;;;;5114433;28;20051;-72
2022/10/01 02:21:44;;;;;;;5.25;2.63;;;12.40;90.60;;;;;;5114380;28;20028;-72
2022/10/01 02:24:19;;;;;;;4.25;2.60;;;12.30;90.90;;;;;;5098804;28;20062;-72
2022/10/01 02:26:48;;;;;;;2.50;1.95;;;12.40;90.60;;;;;;5114167;28;20020;-72
2022/10/01 02:29:17;;;;;;;4.72;2.83;;;12.40;90.60;;;;;;5114024;28;20068;-72
2022/10/01 02:31:46;;;;;;;4.30;2.40;;;12.40;90.80;;;;;;5114038;28;20051;-72
2022/10/01 02:34:14;;;;;;;4.13;2.15;;;12.30;90.80;;;;;;5113981;28;20058;-72
2022/10/01 02:36:44;;;;;;;5.43;3.00;;;12.30;90.90;;;;;;5113970;28;20042;-72
2022/10/01 02:39:13;;;;;;;2.97;2.20;;;12.30;91.60;;;;;;5113896;28;20024;-72
2022/10/01 02:41:41;;;;;;;3.88;2.70;;;12.30;91.10;;;;;;5096445;28;20062;-72
2022/10/01 02:44:21;;;;;;;3.85;2.10;;;12.30;91.30;;;;;;5113780;28;20024;-72
2022/10/01 02:47:02;;;;;;;4.43;2.10;;;12.30;91.30;;;;;;5113667;28;20047;-72
2022/10/01 02:49:29;;;;;;;2.78;2.00;;;12.40;91.10;;;;;;5113929;28;20092;-72
2022/10/01 02:52:16;;;;;;;2.28;1.67;;;12.40;91.10;;;;;;5113750;28;20026;-72
2022/10/01 02:55:18;;;;;;;3.47;2.20;;;12.30;91.20;;;;;;5113894;28;20021;-72
2022/10/01 02:57:44;;;;;;;3.65;2.00;;;12.30;91.30;;;;;;5100275;28;20044;-72
2022/10/01 03:00:14;;;;;;;3.22;1.88;;;12.30;91.40;;;;;;5113653;28;20024;-71
2022/10/01 03:02:40;;;;;;;2.97;1.80;;;12.30;91.40;;;;;;5113290;28;20032;-72
2022/10/01 03:05:06;;;;;;;2.28;1.80;;;12.30;91.40;;;;;;5113603;28;20028;-72
2022/10/01 03:07:34;;;;;;;2.13;1.70;;;12.30;91.40;;;;;;5113545;28;20024;-71
2022/10/01 03:10:00;;;;;;;2.75;1.80;;;12.40;91.40;;;;;;5113668;28;20024;-72
2022/10/01 03:12:26;;;;;;;3.67;1.65;;;12.40;91.40;;;;;;5113524;28;20035;-72
2022/10/01 03:14:52;;;;;;;3.20;1.58;;;12.40;91.50;;;;;;5113500;28;20048;-72
2022/10/01 03:17:18;;;;;;;1.83;1.40;;;12.40;91.50;;;;;;5113492;28;20047;-72
2022/10/01 03:19:44;;;;;;;1.98;1.38;;;12.40;91.50;;;;;;5113438;28;20020;-72
2022/10/01 03:22:12;;;;;;;1.45;1.30;;;12.40;91.50;;;;;;5113401;28;20032;-72
2022/10/01 03:24:38;;;;;;;1.70;1.40;;;12.40;91.60;;;;;;5113328;28;20024;-72
2022/10/01 03:27:04;;;;;;;2.13;1.30;;;12.40;91.50;;;;;;5113402;28;20089;-71
2022/10/01 03:29:29;;;;;;;1.83;1.55;;;12.40;91.60;;;;;;5113266;28;20032;-71
2022/10/01 03:31:55;;;;;;;2.05;1.40;;;12.40;91.50;;;;;;5113324;28;20031;-72
2022/10/01 03:34:21;;;;;;;2.08;1.30;;;12.50;91.30;;;;;;5113326;28;20028;-71
2022/10/01 03:36:47;;;;;;;2.15;1.40;;;12.50;91.20;;;;;;5113275;28;20032;-72
2022/10/01 03:39:13;;;;;;;1.90;1.40;;;12.50;91.20;;;;;;5113256;28;20081;-72
2022/10/01 03:41:39;;;;;;;1.48;1.38;;;12.50;91.30;;;;;;5113229;28;20024;-71
2022/10/01 03:44:04;;;;;;;1.80;1.40;;;12.60;91.30;;;;;;5113154;28;20057;-72
2022/10/01 03:46:30;;;;;;;2.00;1.15;;;12.60;91.10;;;;;;5113001;28;20055;-71
2022/10/01 03:48:58;;;;;;;2.20;1.30;;;12.60;91.20;;;;;;5113211;28;20103;-71
2022/10/01 03:51:24;;;;;;;2.13;1.00;;;12.60;91.20;;;;;;5113155;28;20467;-71
2022/10/01 03:53:49;;;;;;;1.20;1.10;;;12.60;91.20;;;;;;5113099;28;20028;-72
2022/10/01 03:56:15;;;;;;;1.40;1.30;;;12.60;91.20;;;;;;5113213;28;20486;-72
2022/10/01 03:58:41;;;;;;;1.70;1.00;;;12.60;91.20;;;;;;5113070;28;20064;-71
2022/10/01 04:01:07;;;;;;;1.00;0.90;;;12.70;91.00;;;;;;5113085;28;20039;-72
2022/10/01 04:03:33;;;;;;;2.63;1.00;;;12.70;91.00;;;;;;5113095;28;20052;-72
2022/10/01 04:05:58;;;;;;;1.50;1.00;;;12.70;91.00;;;;;;5112999;28;20028;-72
2022/10/01 04:08:24;;;;;;;1.35;1.05;;;12.70;91.00;;;;;;5113006;28;20031;-72
2022/10/01 04:10:49;;;;;;;1.38;1.10;;;12.70;91.00;;;;;;5112975;28;20082;-72
2022/10/01 04:13:16;;;;;;;1.23;0.82;;;12.70;91.10;;;;;;5112961;28;20027;-72
2022/10/01 04:15:42;;;;;;;1.10;1.00;;;12.70;91.10;;;;;;5116129;28;20073;-72
2022/10/01 04:18:08;;;;;;;1.00;0.90;;;12.80;91.40;;;;;;5116730;28;20032;-71
2022/10/01 04:20:36;;;;;;;1.48;1.10;;;12.70;91.10;;;;;;5116556;28;20028;-72
2022/10/01 04:23:04;;;;;;;0.98;0.77;;;12.80;91.00;;;;;;5116404;28;20031;-72
2022/10/01 04:25:30;;;;;;;1.20;0.82;;;12.80;91.00;;;;;;5116625;28;20028;-72
2022/10/01 04:27:57;;;;;;;1.20;1.00;;;12.90;91.10;;;;;;5116399;28;20036;-71
2022/10/01 04:30:24;;;;;;;1.55;0.93;;;12.90;91.00;;;;;;5116309;28;20020;-71
2022/10/01 04:32:50;;;;;;;1.20;0.80;;;12.90;91.00;;;;;;5116314;28;20020;-71
2022/10/01 04:35:15;;;;;;;0.73;0.70;;;12.90;91.00;;;;;;5116270;28;20024;-71
2022/10/01 04:37:41;;;;;;;2.03;0.80;;;12.90;91.00;;;;;;5116232;28;20028;-71
2022/10/01 04:40:08;;;;;;;1.10;0.90;;;12.90;91.00;;;;;;5098275;28;20020;-71
2022/10/01 04:42:34;;;;;;;1.10;1.00;;;12.90;91.00;;;;;;5116109;28;20024;-71
2022/10/01 04:44:59;;;;;;;1.38;1.00;;;12.90;91.00;;;;;;5116106;28;20123;-72
2022/10/01 04:47:25;;;;;;;1.27;1.00;;;13.00;91.00;;;;;;5115892;28;20040;-72
2022/10/01 04:49:50;;;;;;;0.90;0.82;;;13.00;91.10;;;;;;5115977;28;20563;-72
2022/10/01 04:52:16;;;;;;;2.50;0.98;;;13.10;91.10;;;;;;5115920;28;20024;-72
2022/10/01 04:54:42;;;;;;;2.15;1.08;;;13.10;91.00;;;;;;5115864;28;20050;-71
2022/10/01 04:57:07;;;;;;;2.30;0.90;;;13.10;91.00;;;;;;5115885;28;20032;-71
2022/10/01 04:59:33;;;;;;;0.95;0.85;;;13.10;91.00;;;;;;5115811;28;20024;-71
2022/10/01 05:01:58;;;;;;;1.77;0.90;;;13.10;91.10;;;;;;5115764;28;20036;-71
2022/10/01 05:04:26;;;;;;;1.17;0.98;;;13.10;91.10;;;;;;5115612;28;20025;-71
2022/10/01 05:06:51;;;;;;;1.45;1.00;;;13.20;91.00;;;;;;5115668;28;20020;-71
2022/10/01 05:09:17;;;;;;;0.98;0.80;;;13.10;91.10;;;;;;5115600;28;20077;-71
2022/10/01 05:11:42;;;;;;;2.47;1.08;;;13.20;91.20;;;;;;5115578;28;20016;-72
2022/10/01 05:14:09;;;;;;;1.58;1.17;;;13.20;91.10;;;;;;5115661;28;20364;-71
2022/10/01 05:16:35;;;;;;;1.42;1.17;;;13.20;91.20;;;;;;5115608;28;20098;-71
2022/10/01 05:19:00;;;;;;;1.50;1.10;;;13.20;91.30;;;;;;5115411;28;20032;-71
2022/10/01 05:21:26;;;;;;;1.38;1.27;;;13.20;91.30;;;;;;5115388;28;20055;-71
2022/10/01 05:23:52;;;;;;;1.27;1.05;;;13.20;91.30;;;;;;5115388;28;20028;-71
2022/10/01 05:26:17;;;;;;;1.20;1.10;;;13.30;91.30;;;;;;5115089;28;20025;-71
2022/10/01 05:28:43;;;;;;;1.08;0.80;;;13.30;91.40;;;;;;5115275;28;20024;-71
2022/10/01 05:31:10;;;;;;;1.38;1.10;;;13.30;91.40;;;;;;5115215;28;20155;-71
2022/10/01 05:33:36;;;;;;;1.42;1.20;;;13.30;91.40;;;;;;5115118;28;20027;-71
2022/10/01 05:36:05;;;;;;;1.98;1.60;;;13.30;91.40;;;;;;5115106;28;20032;-72
2022/10/01 05:38:35;;;;;;;2.90;1.40;;;13.30;91.50;;;;;;5115061;28;20024;-71
2022/10/01 05:41:04;;;;;;;5.30;1.40;;;13.30;91.50;;;;;;5115011;28;20020;-71
2022/10/01 05:43:30;;;;;;;1.58;1.30;;;13.30;91.50;;;;;;5114861;28;20044;-72
2022/10/01 05:46:00;;;;;;;2.85;1.52;;;13.40;91.40;;;;;;5114704;28;20055;-72
2022/10/01 05:48:26;;;;;;;2.10;1.42;;;13.40;91.90;;;;;;5114851;28;20020;-71
2022/10/01 05:50:53;;;;;;;2.75;2.05;;;13.40;91.40;;;;;;5114818;28;20024;-72
2022/10/01 05:53:19;;;;;;;2.60;1.90;;;13.50;91.40;;;;;;5114787;28;20024;-71
2022/10/01 05:55:45;;;;;;;1.80;1.52;;;13.50;91.40;;;;;;5114701;28;20036;-71
2022/10/01 05:58:12;;;;;;;2.33;1.50;;;13.40;91.50;;;;;;5114659;28;20059;-71
2022/10/01 06:00:40;;;;;;;2.75;1.60;;;13.50;91.50;;;;;;5114626;28;20035;-72
2022/10/01 06:03:06;;;;;;;2.30;1.55;;;13.50;91.60;;;;;;5114481;28;20039;-71
2022/10/01 06:05:34;;;;;;;2.55;1.80;;;13.50;91.60;;;;;;5114507;28;20023;-71
2022/10/01 06:08:00;;;;;;;1.70;1.40;;;13.50;91.60;;;;;;5114623;28;20017;-72
2022/10/01 06:10:29;;;;;;;2.85;1.75;;;13.50;91.60;;;;;;5114463;28;20020;-71
2022/10/01 06:13:00;;;;;;;2.45;1.70;;;13.50;91.70;;;;;;5114392;28;20024;-71
2022/10/01 06:15:26;;;;;;;3.53;1.75;;;13.60;91.60;;;;;;5114459;28;20085;-71
2022/10/01 06:17:52;;;;;;;3.75;2.10;;;13.60;91.50;;;;;;5114412;28;20084;-71
2022/10/01 06:20:19;;;;;;;2.72;2.00;;;13.70;91.50;;;;;;5114404;28;20367;-72
2022/10/01 06:22:52;;;;;;;3.65;1.75;;;13.70;91.60;;;;;;5114211;28;20020;-72
2022/10/01 06:25:18;;;;;;;4.47;3.05;;;13.70;91.50;;;;;;5114237;28;20020;-73
2022/10/01 06:27:43;;;;;;;4.57;1.95;;;13.70;91.70;;;;;;5114141;28;20490;-72
2022/10/01 06:30:10;;;;;;;3.17;2.53;;;13.70;91.70;;;;;;5114003;28;20036;-72
2022/10/01 06:32:35;;;;;;;3.47;2.40;;;13.70;91.70;;;;;;5114054;28;20440;-73
2022/10/01 06:35:02;;;;;;;4.25;2.67;;;13.70;92.10;;;;;;5114121;28;20028;-72
2022/10/01 06:37:28;;;;;;;3.55;2.53;;;13.70;91.70;;;;;;5095684;28;20050;-72
2022/10/01 06:39:53;;;;;;;3.63;2.80;;;13.80;92.20;;;;;;5113954;28;20099;-72
2022/10/01 06:42:19;;;;;;;4.03;2.80;;;13.80;91.80;;;;;;5113883;28;20032;-72
2022/10/01 06:44:44;;;;;;;6.82;3.40;;;13.80;91.60;;;;;;5113916;28;20028;-72
2022/10/01 06:47:10;;;;;;;5.65;3.10;;;13.90;92.00;;;;;;5113666;28;20052;-72
2022/10/01 06:49:36;;;;;;;4.55;3.15;;;13.90;91.70;;;;;;5113805;28;20074;-72
2022/10/01 06:54:45;;;;;;;3.53;2.88;;;14.00;91.70;;;;;;5113995;28;20047;-73
2022/10/01 06:57:11;;;;;;;4.88;2.92;;;13.90;91.60;;;;;;5113822;28;20032;-72
2022/10/01 06:59:36;;;;;;;6.10;3.47;;;14.00;91.70;;;;;;5095890;28;20035;-72
2022/10/01 07:02:03;;;;;;;6.20;3.92;;;14.00;91.70;;;;;;5113602;28;20036;-72
2022/10/01 07:04:29;;;;;;;5.93;3.58;;;14.10;91.80;;;;;;5113516;28;20087;-72
2022/10/01 07:06:55;;;;;;;7.20;3.90;;;14.10;91.90;;;;;;5113522;28;20024;-72
2022/10/01 07:09:25;;;;;;;5.18;3.85;;;14.20;91.80;;;;;;5113562;28;20075;-73
2022/10/01 07:11:52;;;;;;;9.52;4.07;;;14.20;91.60;;;;;;5113494;28;20084;-73
2022/10/01 07:14:19;;;;;;;6.85;3.65;;;14.30;91.40;;;;;;5113516;28;20031;-73
2022/10/01 07:16:44;;;;;;;7.32;4.25;;;14.30;91.40;;;;;;5113483;28;20025;-72
2022/10/01 07:19:10;;;;;;;7.13;4.03;;;14.30;91.50;;;;;;5113388;28;20129;-72
2022/10/01 07:21:36;;;;;;;6.28;3.53;;;14.30;91.40;;;;;;5113546;28;20028;-72
2022/10/01 07:24:02;;;;;;;6.18;3.97;;;14.30;91.50;;;;;;5113290;28;20032;-72
2022/10/01 07:26:28;;;;;;;9.20;4.18;;;14.40;91.60;;;;;;5113358;28;20053;-73
2022/10/01 07:28:54;;;;;;;7.07;4.47;;;14.30;91.60;;;;;;5113408;28;20024;-72
2022/10/01 07:31:20;;;;;;;6.35;4.32;;;14.40;91.50;;;;;;5113311;28;20024;-72
2022/10/01 07:33:47;;;;;;;6.28;4.15;;;14.40;91.50;;;;;;5113272;28;20429;-72
2022/10/01 07:36:12;;;;;;;7.15;4.40;;;14.50;91.40;;;;;;5113316;28;20483;-72
2022/10/01 07:38:38;;;;;;;6.95;4.50;;;14.50;91.50;;;;;;5113257;28;20027;-73
2022/10/01 07:41:04;;;;;;;7.45;4.90;;;14.50;91.40;;;;;;5113269;28;20099;-72
2022/10/01 07:43:31;;;;;;;8.18;5.00;;;14.60;91.50;;;;;;5113142;28;20036;-72
2022/10/01 07:45:57;;;;;;;12.10;5.03;;;14.60;91.60;;;;;;5113015;28;20123;-72
2022/10/01 07:48:26;;;;;;;11.85;5.70;;;14.70;91.60;;;;;;5113191;28;20024;-72
2022/10/01 07:50:52;;;;;;;10.68;5.80;;;14.80;91.50;;;;;;5099120;28;20479;-73
2022/10/01 07:53:18;;;;;;;11.98;6.18;;;15.00;91.80;;;;;;5117086;28;20036;-73
2022/10/01 07:55:44;;;;;;;10.68;6.05;;;15.10;91.40;;;;;;5117012;28;20032;-73
2022/10/01 07:58:10;;;;;;;8.20;5.78;;;15.10;91.40;;;;;;5116973;28;20057;-73
2022/10/01 08:00:37;;;;;;;8.93;5.82;;;15.10;91.10;;;;;;5117094;28;20032;-72
2022/10/01 08:03:03;;;;;;;9.75;5.85;;;15.10;91.00;;;;;;5116758;28;20028;-73
2022/10/01 08:05:34;;;;;;;8.30;5.55;;;15.10;91.00;;;;;;5116868;28;20032;-73
2022/10/01 08:08:03;;;;;;;12.05;6.10;;;15.10;91.10;;;;;;5116806;28;20031;-72
2022/10/01 08:10:29;;;;;;;9.60;5.65;;;15.00;91.00;;;;;;5116766;28;20016;-72
2022/10/01 08:13:07;;;;;;;9.45;5.15;;;15.00;91.00;;;;;;5116717;28;20020;-73
2022/10/01 08:15:32;;;;;;;12.20;5.85;;;15.00;91.10;;;;;;5116700;28;20024;-73
2022/10/01 08:18:02;;;;;;;10.25;6.03;;;15.00;91.10;;;;;;5116629;28;20043;-72
2022/10/01 08:20:28;;;;;;;8.20;5.10;;;15.00;91.20;;;;;;5116517;28;20092;-72
2022/10/01 08:22:53;;;;;;;11.13;5.90;;;14.90;91.30;;;;;;5116438;28;20028;-72
2022/10/01 08:25:19;;;;;;;8.30;5.70;;;14.90;91.30;;;;;;5116513;28;20027;-72
2022/10/01 08:27:44;;;;;;;11.15;6.28;;;14.90;91.60;;;;;;5116434;28;20036;-72
2022/10/01 08:30:10;;;;;;;10.00;5.88;;;15.00;91.70;;;;;;5098426;28;20032;-73
2022/10/01 08:32:36;;;;;;;11.48;6.25;;;15.00;92.10;;;;;;5116338;28;20028;-73
2022/10/01 08:35:03;;;;;;;8.52;5.43;;;15.00;91.90;;;;;;5116280;28;20024;-73
2022/10/01 08:37:29;;;;;;;10.07;5.00;;;15.00;92.00;;;;;;5116242;28;20054;-73
2022/10/01 08:39:55;;;;;;;7.88;4.32;;;15.10;91.80;;;;;;5116212;28;20028;-73
2022/10/01 08:42:21;;;;;;;8.07;3.90;;;15.10;91.60;;;;;;5116149;28;20024;-73
2022/10/01 08:44:50;;;;;;;5.80;3.33;;;15.10;91.20;;;;;;5116178;28;20051;-73
2022/10/01 08:47:37;;;;;;;7.70;4.53;;;15.10;90.90;;;;;;5115879;28;20043;-73
2022/10/01 08:50:27;;;;;;;7.68;3.72;;;15.10;90.90;;;;;;5116187;28;20023;-73
2022/10/01 08:52:59;;;;;;;7.68;4.20;;;15.00;90.90;;;;;;5115958;28;20021;-73
2022/10/01 08:55:27;;;;;;;6.72;4.70;;;14.90;91.10;;;;;;5115955;28;20022;-73
2022/10/01 08:58:02;;;;;;;11.02;5.18;;;14.90;91.40;;;;;;5115867;28;20139;-73
2022/10/01 09:00:31;;;;;;;10.88;4.60;;;14.90;91.50;;;;;;5115243;28;20083;-73
2022/10/01 09:03:03;;;;;;;9.57;4.82;;;14.90;91.50;;;;;;5115686;28;20090;-73
2022/10/01 09:05:41;;;;;;;11.33;5.47;;;14.90;91.50;;;;;;5115804;28;20016;-73
2022/10/01 09:08:42;;;;;;;8.60;5.20;;;15.00;91.70;;;;;;5115832;28;20035;-74
2022/10/01 09:11:17;;;;;;;9.88;5.75;;;14.90;92.00;;;;;;5115653;28;20019;-73
2022/10/01 09:13:56;;;;;;;12.80;6.07;;;15.00;92.10;;;;;;5115721;28;20047;-73
2022/10/01 09:16:27;;;;;;;10.35;6.22;;;15.00;92.10;;;;;;5115537;28;20035;-73
2022/10/01 09:19:30;;;;;;;13.57;6.47;;;15.00;92.10;;;;;;5115638;28;20073;-73
2022/10/01 09:22:06;;;;;;;12.30;6.75;;;15.10;92.40;;;;;;5115443;28;20277;-73
2022/10/01 09:25:12;;;;;;;12.88;7.20;;;15.20;92.60;;;;;;5115267;28;20024;-73
2022/10/01 09:27:38;;;;;;;14.25;7.80;;;15.40;92.60;;;;;;5107078;28;20056;-73
2022/10/01 09:30:05;;;;;;;14.75;7.78;;;15.50;92.50;;;;;;5115161;28;20043;-73
2022/10/01 09:33:01;;;;;;;14.75;7.47;;;15.60;92.40;;;;;;5115279;28;20028;-73
2022/10/01 09:35:46;;;;;;;14.85;7.30;;;15.80;92.40;;;;;;5109667;28;20032;-73
2022/10/01 09:38:35;;;;;;;12.40;7.43;;;15.90;92.10;;;;;;5115037;28;20024;-73
2022/10/01 09:41:01;;;;;;;14.93;7.63;;;15.90;92.00;;;;;;5115054;28;20021;-72
2022/10/01 09:43:30;;;;;;;14.35;6.57;;;15.90;92.30;;;;;;5114894;28;20032;-73
2022/10/01 09:45:56;;;;;;;11.57;6.90;;;16.00;92.10;;;;;;5114733;28;20041;-73
2022/10/01 09:48:29;;;;;;;11.18;5.57;;;16.10;91.70;;;;;;5114873;28;20024;-73
2022/10/01 09:51:01;;;;;;;;;;;16.10;91.40;;;;;;5115452;28;20052;-73
2022/10/01 09:53:40;;;;;;;10.85;5.55;;;16.10;90.70;;;;;;5114901;28;19904;-73
2022/10/01 09:56:23;;;;;;;10.75;5.40;;;16.10;91.00;;;;;;5114769;28;20084;-73
2022/10/01 09:58:53;;;;;;;8.50;4.57;;;16.20;91.00;;;;;;5114720;28;20024;-73
2022/10/01 10:01:34;;;;;;;9.32;4.85;;;16.40;90.70;;;;;;5114686;28;20079;-73
2022/10/01 10:04:00;;;;;;;6.88;3.42;;;16.40;90.60;;;;;;5114536;28;20034;-73
2022/10/01 10:06:29;;;;;;;2.97;1.95;;;16.50;90.00;;;;;;5114520;28;20029;-73
2022/10/01 10:08:58;;;;;;;5.82;2.63;;;16.50;87.70;;;;;;5114775;28;20070;-73
2022/10/01 10:11:27;;;;;;;4.68;2.40;;;16.50;88.30;;;;;;5113797;28;20028;-73
2022/10/01 10:13:58;;;;;;;7.30;2.63;;;16.60;87.80;;;;;;5114382;28;20027;-73
2022/10/01 10:16:32;;;;;;;7.38;2.63;;;16.80;87.70;;;;;;5114451;28;20032;-73
2022/10/01 10:19:26;;;;;;;6.30;1.90;;;17.00;87.30;;;;;;5114478;28;20027;-73
2022/10/01 10:21:56;;;;;;;10.55;2.70;;;17.20;87.00;;;;;;5111978;28;20032;-73
2022/10/01 10:24:31;;;;;;;5.85;1.88;;;17.20;85.10;;;;;;5114063;28;20092;-73
2022/10/01 10:27:00;;;;;;;6.03;1.55;;;17.20;84.90;;;;;;5114226;28;20028;-73
2022/10/01 10:29:31;;;;;;;8.65;2.28;;;17.30;84.40;;;;;;5114070;28;20031;-73
2022/10/01 10:31:58;;;;;;;5.32;1.35;;;17.50;83.80;;;;;;5114075;28;20031;-73
2022/10/01 10:34:39;;;;;;;10.20;2.03;;;17.50;82.60;;;;;;5114018;28;20024;-73
2022/10/01 10:37:17;;;;;;;2.92;1.30;;;17.50;82.50;;;;;;5114069;28;20039;-73
2022/10/01 10:39:49;;;;;;;7.43;1.63;;;17.40;81.40;;;;;;5114138;28;20020;-73
2022/10/01 10:42:16;;;;;;;6.82;1.20;;;17.40;81.90;;;;;;5113956;28;20050;-72
2022/10/01 10:44:45;;;;;;;4.38;1.35;;;17.50;81.30;;;;;;5113807;28;20047;-73
2022/10/01 10:47:13;;;;;;;6.13;1.25;;;17.70;80.50;;;;;;5113649;28;20055;-73
2022/10/01 10:49:45;;;;;;;6.53;1.20;;;17.80;80.40;;;;;;5113766;28;20048;-72
2022/10/01 10:52:23;;;;;;;7.80;2.05;;;17.90;78.20;;;;;;5113823;28;20062;-72
2022/10/01 10:54:55;;;;;;;4.25;1.33;;;18.00;78.50;;;;;;5113810;28;20020;-73
2022/10/01 10:57:28;;;;;;;7.57;1.13;;;18.00;78.10;;;;;;5113754;28;20521;-72
2022/10/01 11:00:15;;;;;;;7.78;1.23;;;18.10;76.90;;;;;;5113697;28;20020;-72
2022/10/01 11:02:50;;;;;;;8.50;1.63;;;18.10;77.70;;;;;;5113779;28;20032;-73
2022/10/01 11:05:19;;;;;;;5.20;1.25;;;18.30;75.80;;;;;;5113706;28;20030;-73
2022/10/01 11:07:46;;;;;;;7.80;1.15;;;18.40;77.30;;;;;;5113583;28;20020;-73
2022/10/01 11:10:38;;;;;;;5.00;1.30;;;18.40;76.00;;;;;;5113542;28;20024;-73
2022/10/01 11:13:26;;;;;;;5.80;0.70;;;18.50;74.60;;;;;;5113564;28;20020;-73
2022/10/01 11:16:16;;;;;;;7.10;1.33;;;18.50;75.80;;;;;;5113685;28;20036;-72
2022/10/01 11:19:13;;;;;;;8.82;1.42;;;18.70;75.80;;;;;;5095646;28;20075;-72
2022/10/01 11:21:51;;;;;;;6.18;1.20;;;18.90;75.00;;;;;;5113673;28;20028;-73
2022/10/01 11:24:48;;;;;;;7.05;1.42;;;19.00;72.70;;;;;;5116259;28;20028;-72
2022/10/01 11:27:26;;;;;;;5.25;1.33;;;19.00;73.70;;;;;;5105456;28;20134;-73
2022/10/01 11:30:05;;;;;;;5.70;1.02;;;19.00;73.10;;;;;;5117565;28;20028;-72
2022/10/01 11:32:50;;;;;;;5.00;1.30;;;19.00;71.80;;;;;;5117696;28;20020;-70
2022/10/01 11:35:25;;;;;;;4.43;1.02;;;18.90;71.90;;;;;;5117665;28;20028;-70
2022/10/01 11:38:26;;;;;;;6.13;1.20;;;18.80;69.30;;;;;;5117607;28;20455;-72
2022/10/01 11:41:04;;;;;;;9.35;1.75;;;18.60;69.70;;;;;;5117403;28;20067;-72
2022/10/01 11:43:39;;;;;;;6.22;1.10;;;18.50;71.00;;;;;;5117240;28;20048;-72
2022/10/01 11:46:26;;;;;;;6.07;1.00;;;18.40;71.80;;;;;;5117132;28;20047;-72
2022/10/01 11:49:01;;;;;;;7.43;0.98;;;18.40;72.00;;;;;;5117269;28;20019;-72
2022/10/01 11:51:33;;;;;;;5.38;1.20;;;18.60;72.40;;;;;;5117220;28;20020;-72
2022/10/01 11:54:00;;;;;;;;;;;18.70;71.50;;;;;;5117588;28;20024;-72
2022/10/01 11:59:23;;;;;;;7.95;1.50;;;18.80;69.40;;;;;;5117042;28;20035;-72
2022/10/01 12:02:22;;;;;;;7.88;1.10;;;18.80;68.60;;;;;;5117009;28;20035;-72
2022/10/01 12:04:57;;;;;;;7.97;1.30;;;18.80;68.80;;;;;;5116747;28;20099;-73
2022/10/01 12:07:41;;;;;;;3.22;1.13;;;18.60;68.80;;;;;;5116917;28;20042;-72
2022/10/01 12:10:39;;;;;;;6.85;1.23;;;18.50;68.80;;;;;;5116804;28;20048;-72
2022/10/01 12:13:32;;;;;;;6.05;1.00;;;18.40;68.70;;;;;;5116209;28;20029;-72
2022/10/01 12:16:10;;;;;;;8.77;1.40;;;18.30;69.20;;;;;;5116751;28;20024;-72
2022/10/01 12:18:54;;;;;;;4.47;1.05;;;18.10;69.30;;;;;;5116617;28;20035;-72
2022/10/01 12:21:28;;;;;;;7.32;1.25;;;18.00;70.50;;;;;;5116637;28;20020;-72
2022/10/01 12:24:02;;;;;;;9.23;1.42;;;17.90;71.10;;;;;;5116518;28;20092;-72
2022/10/01 12:26:37;;;;;;;5.90;1.42;;;17.80;71.50;;;;;;5116569;28;20020;-72
2022/10/01 12:29:17;;;;;;;7.97;0.90;;;17.70;71.90;;;;;;5116383;28;20028;-72
2022/10/01 12:32:03;;;;;;;4.95;1.20;;;17.60;72.00;;;;;;5116370;28;20020;-72
2022/10/01 12:34:55;;;;;;;5.95;1.20;;;17.60;72.90;;;;;;5115757;28;20043;-72
2022/10/01 12:37:48;;;;;;;8.55;1.55;;;17.70;73.70;;;;;;5098389;28;20032;-72
2022/10/01 12:40:43;;;;;;;5.72;1.13;;;18.00;73.50;;;;;;5116248;28;20020;-72
2022/10/01 12:43:27;;;;;;;4.50;1.00;;;18.20;71.20;;;;;;5116087;28;20471;-72
2022/10/01 12:46:08;;;;;;;6.55;1.05;;;18.40;70.30;;;;;;5115883;28;20047;-72
2022/10/01 12:49:09;;;;;;;3.60;0.68;;;18.50;70.00;;;;;;5116242;28;20020;-72
2022/10/01 12:51:58;;;;;;;3.92;0.73;;;18.70;67.70;;;;;;5092142;28;20040;-72
2022/10/01 12:54:50;;;;;;;4.70;1.27;;;18.80;66.30;;;;;;5116159;28;20052;-73
2022/10/01 12:57:16;;;;;;;;;;;18.90;66.10;;;;;;5116528;28;20024;-72
2022/10/01 12:59:44;;;;;;;4.50;0.60;;;19.00;66.30;;;;;;5115854;28;19926;-72
2022/10/01 13:02:33;;;;;;;4.50;1.20;;;19.10;65.40;;;;;;5115806;28;20032;-72
2022/10/01 13:05:05;;;;;;;3.65;0.75;;;19.10;62.40;;;;;;5115738;28;20020;-72
2022/10/01 13:07:39;;;;;;;3.63;0.95;;;19.30;63.00;;;;;;5115714;28;20055;-72
2022/10/01 13:10:16;;;;;;;8.10;0.98;;;19.30;62.80;;;;;;5115830;28;20024;-72
2022/10/01 13:13:10;;;;;;;5.22;0.88;;;19.50;62.80;;;;;;5115636;28;20046;-72
2022/10/01 13:15:39;;;;;;;3.65;0.80;;;19.60;61.90;;;;;;5115030;28;20056;-73